createdAt,value
2019-03-16T00:01:35.391Z,6.87
2019-03-16T00:04:04.622Z,6.90
2019-03-16T00:06:36.080Z,6.90
2019-03-16T00:09:07.868Z,6.91
2019-03-16T00:11:37.416Z,6.93
2019-03-16T00:14:06.655Z,6.93
2019-03-16T00:16:35.927Z,6.92
2019-03-16T00:19:05.519Z,6.90
2019-03-16T00:21:34.851Z,6.90
2019-03-16T00:24:04.081Z,6.87
2019-03-16T00:26:33.430Z,6.81
2019-03-16T00:29:02.753Z,6.84
2019-03-16T00:31:32.027Z,6.80
2019-03-16T00:34:01.296Z,6.77
2019-03-16T00:36:30.635Z,6.78
2019-03-16T00:39:00.101Z,6.73
2019-03-16T00:41:29.428Z,6.73
2019-03-16T00:43:58.711Z,6.72
2019-03-16T00:46:27.928Z,6.66
2019-03-16T00:48:57.149Z,6.66
2019-03-16T00:51:26.375Z,6.64
2019-03-16T00:53:55.598Z,6.62
2019-03-16T00:56:24.900Z,6.61
2019-03-16T00:58:54.231Z,6.58
2019-03-16T01:01:23.498Z,6.58
2019-03-16T01:03:52.926Z,6.55
2019-03-16T01:06:22.199Z,6.55
2019-03-16T01:08:51.530Z,6.49
2019-03-16T01:11:20.797Z,6.50
2019-03-16T01:13:50.135Z,6.52
2019-03-16T01:16:19.405Z,6.56
2019-03-16T01:18:48.628Z,6.52
2019-03-16T01:21:17.856Z,6.55
2019-03-16T01:23:47.095Z,6.53
2019-03-16T01:26:16.417Z,6.50
2019-03-16T01:28:45.747Z,6.50
2019-03-16T01:31:14.963Z,6.49
2019-03-16T01:33:44.334Z,6.54
2019-03-16T01:36:13.577Z,6.58
2019-03-16T01:38:42.806Z,6.55
2019-03-16T01:41:12.059Z,6.56
2019-03-16T01:43:41.299Z,6.56
2019-03-16T01:46:10.546Z,6.56
2019-03-16T01:48:39.763Z,6.52
2019-03-16T01:51:08.969Z,6.53
2019-03-16T01:53:38.200Z,6.54
2019-03-16T01:56:07.566Z,6.51
2019-03-16T01:58:36.936Z,6.49
2019-03-16T02:01:06.204Z,6.54
2019-03-16T02:03:35.399Z,6.54
2019-03-16T02:06:04.584Z,6.55
2019-03-16T02:08:33.794Z,6.52
2019-03-16T02:11:03.102Z,6.52
2019-03-16T02:13:32.418Z,6.51
2019-03-16T02:16:10.933Z,6.50
2019-03-16T02:18:31.034Z,6.52
2019-03-16T02:21:00.349Z,6.52
2019-03-16T02:23:29.600Z,6.53
2019-03-16T02:25:58.824Z,6.53
2019-03-16T02:28:28.054Z,6.57
2019-03-16T02:30:57.325Z,6.54
2019-03-16T02:33:26.547Z,6.52
2019-03-16T02:35:55.914Z,6.51
2019-03-16T02:38:25.195Z,6.52
2019-03-16T02:40:54.432Z,6.52
2019-03-16T02:43:23.753Z,6.58
2019-03-16T02:45:53.020Z,6.54
2019-03-16T02:48:22.210Z,6.52
2019-03-16T02:50:51.392Z,6.58
2019-03-16T02:53:20.649Z,6.54
2019-03-16T02:55:49.844Z,6.50
2019-03-16T02:58:19.065Z,6.49
2019-03-16T03:00:48.270Z,6.49
2019-03-16T03:03:29.062Z,6.45
2019-03-16T03:05:46.701Z,6.45
2019-03-16T03:08:16.021Z,6.46
2019-03-16T03:10:45.246Z,6.44
2019-03-16T03:13:14.557Z,6.39
2019-03-16T03:15:43.696Z,6.40
2019-03-16T03:18:12.988Z,6.42
2019-03-16T03:20:42.213Z,6.39
2019-03-16T03:23:11.552Z,6.37
2019-03-16T03:25:40.936Z,6.37
2019-03-16T03:28:10.226Z,6.37
2019-03-16T03:30:39.506Z,6.36
2019-03-16T03:33:08.734Z,6.36
2019-03-16T03:35:38.133Z,6.35
2019-03-16T03:38:07.324Z,6.32
2019-03-16T03:40:36.533Z,6.33
2019-03-16T03:43:05.807Z,6.31
2019-03-16T03:45:35.016Z,6.32
2019-03-16T03:48:04.299Z,6.33
2019-03-16T03:50:33.525Z,6.25
2019-03-16T03:53:02.806Z,6.24
2019-03-16T03:55:32.170Z,6.27
2019-03-16T03:58:01.390Z,6.25
2019-03-16T04:00:30.613Z,6.24
2019-03-16T04:02:59.908Z,6.24
2019-03-16T04:05:29.226Z,6.19
2019-03-16T04:07:58.452Z,6.18
2019-03-16T04:10:27.728Z,6.13
2019-03-16T04:12:56.932Z,6.16
2019-03-16T04:15:26.167Z,6.17
2019-03-16T04:17:55.400Z,6.15
2019-03-16T04:20:24.622Z,6.15
2019-03-16T04:22:53.911Z,6.10
2019-03-16T04:25:23.136Z,6.08
2019-03-16T04:27:52.401Z,6.09
2019-03-16T04:30:21.730Z,6.10
2019-03-16T04:32:50.901Z,6.06
2019-03-16T04:35:20.283Z,6.07
2019-03-16T04:37:49.499Z,6.10
2019-03-16T04:40:18.822Z,6.13
2019-03-16T04:42:48.102Z,6.10
2019-03-16T04:45:17.343Z,6.13
2019-03-16T04:47:46.534Z,6.09
2019-03-16T04:50:15.757Z,6.10
2019-03-16T04:52:45.006Z,6.10
2019-03-16T04:55:14.256Z,6.14
2019-03-16T04:57:43.508Z,6.14
2019-03-16T05:00:12.837Z,6.14
2019-03-16T05:02:42.070Z,6.14
2019-03-16T05:05:11.304Z,6.15
2019-03-16T05:07:40.506Z,6.20
2019-03-16T05:10:09.770Z,6.19
2019-03-16T05:12:38.993Z,6.18
2019-03-16T05:15:08.282Z,6.23
2019-03-16T05:17:37.494Z,6.26
2019-03-16T05:20:07.296Z,6.20
2019-03-16T05:22:36.506Z,6.23
2019-03-16T05:25:06.324Z,6.22
2019-03-16T05:27:35.618Z,6.20
2019-03-16T05:30:05.333Z,6.24
2019-03-16T05:32:34.562Z,6.30
2019-03-16T05:35:03.762Z,6.31
2019-03-16T05:37:33.023Z,6.31
2019-03-16T05:40:02.256Z,6.35
2019-03-16T05:42:31.465Z,6.35
2019-03-16T05:45:00.760Z,6.40
2019-03-16T05:47:30.170Z,6.42
2019-03-16T05:49:59.397Z,6.43
2019-03-16T05:52:28.599Z,6.44
2019-03-16T05:54:57.967Z,6.42
2019-03-16T05:57:27.178Z,6.46
2019-03-16T05:59:56.424Z,6.45
2019-03-16T06:02:25.653Z,6.50
2019-03-16T06:04:54.838Z,6.52
2019-03-16T06:07:24.165Z,6.51
2019-03-16T06:09:53.428Z,6.52
2019-03-16T06:12:22.704Z,6.51
2019-03-16T06:14:51.928Z,6.49
2019-03-16T06:17:21.129Z,6.58
2019-03-16T06:19:50.342Z,6.61
2019-03-16T06:22:19.547Z,6.67
2019-03-16T06:24:48.760Z,6.65
2019-03-16T06:27:17.992Z,6.62
2019-03-16T06:29:47.334Z,6.68
2019-03-16T06:32:16.528Z,6.70
2019-03-16T06:34:45.742Z,6.71
2019-03-16T06:37:14.996Z,6.75
2019-03-16T06:39:44.222Z,6.79
2019-03-16T06:42:13.463Z,6.79
2019-03-16T06:44:42.707Z,6.77
2019-03-16T06:47:11.974Z,6.76
2019-03-16T06:49:41.224Z,6.73
2019-03-16T06:52:10.500Z,6.57
2019-03-16T06:54:39.740Z,6.44
2019-03-16T06:57:09.050Z,6.34
2019-03-16T06:59:38.338Z,6.22
2019-03-16T07:02:07.574Z,6.15
2019-03-16T07:04:36.937Z,6.08
2019-03-16T07:07:07.388Z,5.96
2019-03-16T07:09:36.592Z,5.89
2019-03-16T07:12:05.820Z,5.72
2019-03-16T07:14:35.060Z,5.69
2019-03-16T07:17:04.312Z,5.63
2019-03-16T07:19:34.007Z,5.63
2019-03-16T07:22:02.880Z,5.56
2019-03-16T07:24:32.129Z,5.47
2019-03-16T07:27:01.380Z,5.39
2019-03-16T07:29:30.621Z,5.37
2019-03-16T07:31:59.900Z,5.29
2019-03-16T07:34:29.150Z,5.26
2019-03-16T07:36:58.440Z,5.09
2019-03-16T07:39:27.690Z,4.90
2019-03-16T07:41:56.901Z,4.88
2019-03-16T07:44:26.126Z,4.83
2019-03-16T07:46:55.395Z,4.69
2019-03-16T07:49:24.612Z,4.66
2019-03-16T07:51:53.874Z,4.69
2019-03-16T07:54:23.109Z,4.69
2019-03-16T07:56:52.329Z,4.69
2019-03-16T07:59:21.553Z,4.67
2019-03-16T08:01:50.880Z,4.79
2019-03-16T08:04:20.125Z,4.75
2019-03-16T08:06:49.362Z,4.75
2019-03-16T08:09:18.794Z,4.79
2019-03-16T08:11:47.903Z,4.85
2019-03-16T08:14:17.162Z,4.82
2019-03-16T08:16:46.693Z,4.90
2019-03-16T08:19:15.962Z,4.87
2019-03-16T08:21:45.271Z,4.94
2019-03-16T08:24:14.494Z,5.01
2019-03-16T08:26:43.886Z,4.99
2019-03-16T08:29:13.111Z,5.03
2019-03-16T08:31:42.381Z,5.07
2019-03-16T08:34:11.608Z,5.04
2019-03-16T08:36:40.838Z,5.04
2019-03-16T08:39:10.184Z,5.06
2019-03-16T08:41:39.463Z,5.05
2019-03-16T08:44:08.782Z,5.11
2019-03-16T08:46:38.060Z,5.24
2019-03-16T08:49:07.286Z,5.36
2019-03-16T08:51:36.556Z,5.66
2019-03-16T08:54:05.799Z,5.88
2019-03-16T08:56:35.063Z,5.90
2019-03-16T08:59:04.307Z,5.83
2019-03-16T09:01:33.532Z,5.81
2019-03-16T09:04:02.770Z,5.65
2019-03-16T09:06:32.010Z,5.48
2019-03-16T09:09:01.280Z,5.42
2019-03-16T09:11:30.705Z,5.29
2019-03-16T09:13:59.916Z,5.18
2019-03-16T09:16:29.187Z,5.11
2019-03-16T09:18:58.398Z,5.02
2019-03-16T09:21:27.679Z,4.95
2019-03-16T09:23:56.890Z,4.91
2019-03-16T09:26:26.122Z,4.87
2019-03-16T09:28:59.924Z,4.82
2019-03-16T09:31:24.580Z,4.81
2019-03-16T09:33:53.895Z,4.73
2019-03-16T09:36:23.164Z,4.67
2019-03-16T09:38:52.402Z,4.68
2019-03-16T09:41:21.587Z,4.62
2019-03-16T09:43:50.826Z,4.54
2019-03-16T09:46:20.166Z,4.62
2019-03-16T09:48:49.382Z,4.62
2019-03-16T09:51:18.682Z,4.55
2019-03-16T09:53:47.881Z,4.54
2019-03-16T09:56:17.110Z,4.46
2019-03-16T09:58:46.388Z,4.44
2019-03-16T10:01:15.611Z,4.41
2019-03-16T10:03:44.809Z,4.45
2019-03-16T10:06:14.051Z,4.51
2019-03-16T10:08:43.264Z,4.58
2019-03-16T10:11:12.450Z,4.66
2019-03-16T10:13:41.725Z,4.78
2019-03-16T10:16:10.950Z,4.87
2019-03-16T10:18:40.184Z,4.94
2019-03-16T10:21:09.358Z,4.88
2019-03-16T10:23:38.627Z,4.88
2019-03-16T10:26:07.826Z,4.88
2019-03-16T10:28:43.709Z,4.82
2019-03-16T10:31:06.274Z,4.86
2019-03-16T10:33:35.494Z,4.91
2019-03-16T10:36:04.726Z,4.90
2019-03-16T10:38:33.973Z,4.91
2019-03-16T10:41:03.188Z,4.96
2019-03-16T10:43:32.420Z,4.98
2019-03-16T10:46:01.710Z,4.94
2019-03-16T10:48:30.918Z,5.00
2019-03-16T10:51:00.191Z,5.05
2019-03-16T10:53:29.432Z,5.05
2019-03-16T10:55:58.766Z,5.04
2019-03-16T10:58:28.022Z,5.04
2019-03-16T11:00:57.234Z,4.97
2019-03-16T11:03:26.504Z,4.98
2019-03-16T11:05:55.822Z,5.03
2019-03-16T11:08:25.128Z,5.08
2019-03-16T11:10:54.346Z,5.12
2019-03-16T11:13:23.548Z,5.16
2019-03-16T11:15:52.772Z,5.23
2019-03-16T11:18:21.996Z,5.26
2019-03-16T11:20:51.199Z,5.25
2019-03-16T11:23:20.414Z,5.52
2019-03-16T11:25:49.649Z,5.80
2019-03-16T11:28:18.912Z,6.02
2019-03-16T11:30:48.220Z,6.09
2019-03-16T11:33:17.450Z,5.99
2019-03-16T11:35:46.694Z,5.86
2019-03-16T11:38:15.932Z,5.68
2019-03-16T11:40:45.202Z,5.58
2019-03-16T11:43:14.516Z,5.55
2019-03-16T11:45:44.009Z,5.54
2019-03-16T11:48:13.196Z,5.54
2019-03-16T11:50:42.469Z,5.55
2019-03-16T11:53:11.710Z,5.58
2019-03-16T11:55:41.009Z,5.62
2019-03-16T11:58:10.571Z,5.66
2019-03-16T12:00:39.822Z,5.73
2019-03-16T12:03:09.075Z,5.79
2019-03-16T12:05:38.408Z,5.84
2019-03-16T12:08:07.726Z,5.91
2019-03-16T12:10:37.105Z,5.99
2019-03-16T12:13:16.660Z,6.08
2019-03-16T12:15:35.831Z,6.15
2019-03-16T12:18:05.110Z,6.25
2019-03-16T12:20:34.411Z,6.37
2019-03-16T12:23:03.591Z,6.45
2019-03-16T12:25:32.867Z,6.56
2019-03-16T12:28:02.120Z,6.66
2019-03-16T12:30:31.415Z,6.81
2019-03-16T12:33:00.636Z,6.96
2019-03-16T12:35:29.906Z,7.14
2019-03-16T12:37:59.134Z,7.30
2019-03-16T12:40:28.403Z,7.44
2019-03-16T12:42:57.841Z,7.63
2019-03-16T12:45:27.107Z,7.81
2019-03-16T12:47:56.349Z,7.96
2019-03-16T12:50:25.681Z,8.22
2019-03-16T12:52:54.919Z,8.22
2019-03-16T12:55:26.911Z,8.48
2019-03-16T12:57:56.160Z,8.58
2019-03-16T13:00:25.418Z,8.62
2019-03-16T13:02:54.680Z,8.70
2019-03-16T13:05:23.923Z,8.70
2019-03-16T13:07:53.152Z,8.82
2019-03-16T13:10:25.538Z,8.83
2019-03-16T13:12:51.613Z,8.91
2019-03-16T13:15:20.915Z,8.91
2019-03-16T13:17:50.285Z,8.96
2019-03-16T13:20:19.488Z,8.98
2019-03-16T13:22:49.061Z,8.92
2019-03-16T13:25:19.241Z,9.07
2019-03-16T13:27:48.729Z,9.03
2019-03-16T13:30:17.989Z,9.03
2019-03-16T13:32:47.184Z,9.11
2019-03-16T13:35:16.430Z,9.09
2019-03-16T13:37:45.675Z,9.10
2019-03-16T13:40:14.893Z,9.18
2019-03-16T13:42:44.138Z,9.23
2019-03-16T13:45:13.390Z,9.26
2019-03-16T13:47:42.633Z,9.22
2019-03-16T13:50:12.216Z,9.20
2019-03-16T13:52:41.601Z,9.26
2019-03-16T13:55:10.828Z,9.28
2019-03-16T13:57:40.085Z,9.27
2019-03-16T14:00:12.312Z,9.28
2019-03-16T14:02:40.267Z,9.34
2019-03-16T14:05:09.529Z,9.37
2019-03-16T14:07:38.864Z,9.32
2019-03-16T14:10:11.070Z,9.38
2019-03-16T14:12:40.335Z,9.42
2019-03-16T14:15:09.613Z,9.42
2019-03-16T14:17:41.618Z,9.47
2019-03-16T14:20:12.672Z,9.47
2019-03-16T14:22:43.792Z,9.44
2019-03-16T14:25:13.162Z,9.44
2019-03-16T14:27:42.337Z,9.38
2019-03-16T14:30:25.617Z,9.43
2019-03-16T14:32:43.042Z,9.39
2019-03-16T14:35:12.340Z,9.37
2019-03-16T14:37:41.637Z,9.46
2019-03-16T14:40:13.480Z,9.55
2019-03-16T14:42:42.905Z,9.50
2019-03-16T14:45:12.214Z,9.49
2019-03-16T14:47:41.629Z,9.51
2019-03-16T14:50:16.760Z,9.48
2019-03-16T14:52:45.663Z,9.55
2019-03-16T14:55:14.931Z,9.67
2019-03-16T14:57:44.224Z,9.67
2019-03-16T15:00:14.124Z,9.84
2019-03-16T15:02:45.925Z,9.97
2019-03-16T15:05:12.619Z,10.00
2019-03-16T15:07:42.107Z,10.03
2019-03-16T15:10:13.347Z,10.03
2019-03-16T15:12:43.009Z,9.95
2019-03-16T15:15:13.211Z,9.94
2019-03-16T15:17:42.661Z,9.85
2019-03-16T15:20:11.901Z,9.88
2019-03-16T15:22:41.156Z,9.86
2019-03-16T15:25:11.386Z,9.86
2019-03-16T15:27:39.757Z,9.95
2019-03-16T15:30:11.546Z,9.95
2019-03-16T15:32:40.790Z,9.96
2019-03-16T15:35:10.034Z,9.91
2019-03-16T15:37:42.335Z,10.00
2019-03-16T15:40:14.015Z,9.99
2019-03-16T15:42:43.265Z,9.98
2019-03-16T15:45:14.624Z,10.05
2019-03-16T15:47:43.966Z,10.06
2019-03-16T15:50:13.455Z,10.09
2019-03-16T15:52:42.758Z,10.11
2019-03-16T15:55:11.993Z,10.06
2019-03-16T15:57:42.733Z,10.02
2019-03-16T16:00:11.388Z,9.93
2019-03-16T16:02:40.618Z,9.93
2019-03-16T16:05:09.970Z,9.90
2019-03-16T16:07:39.596Z,9.87
2019-03-16T16:10:11.095Z,9.86
2019-03-16T16:12:40.354Z,9.86
2019-03-16T16:15:09.676Z,9.83
2019-03-16T16:17:38.976Z,9.81
2019-03-16T16:20:08.788Z,9.83
2019-03-16T16:22:38.036Z,9.75
2019-03-16T16:25:08.135Z,9.70
2019-03-16T16:27:37.411Z,9.65
2019-03-16T16:30:07.782Z,9.65
2019-03-16T16:32:37.052Z,9.65
2019-03-16T16:35:06.335Z,9.61
2019-03-16T16:37:35.592Z,9.57
2019-03-16T16:40:05.394Z,9.57
2019-03-16T16:42:34.700Z,9.63
2019-03-16T16:45:03.993Z,9.63
2019-03-16T16:47:33.226Z,9.70
2019-03-16T16:50:02.467Z,9.68
2019-03-16T16:52:31.688Z,9.62
2019-03-16T16:55:00.906Z,9.62
2019-03-16T16:57:30.119Z,9.68
2019-03-16T16:59:59.317Z,9.81
2019-03-16T17:02:28.834Z,9.80
2019-03-16T17:04:58.170Z,9.88
2019-03-16T17:07:27.348Z,9.88
2019-03-16T17:09:56.874Z,9.95
2019-03-16T17:12:26.256Z,9.97
2019-03-16T17:14:55.660Z,10.02
2019-03-16T17:17:34.706Z,10.04
2019-03-16T17:19:54.204Z,10.04
2019-03-16T17:22:23.503Z,10.02
2019-03-16T17:24:52.774Z,10.05
2019-03-16T17:27:21.985Z,10.04
2019-03-16T17:29:51.233Z,10.00
2019-03-16T17:32:20.576Z,10.09
2019-03-16T17:34:49.832Z,10.09
2019-03-16T17:37:19.266Z,10.13
2019-03-16T17:39:48.440Z,10.07
2019-03-16T17:42:17.662Z,10.05
2019-03-16T17:44:46.855Z,10.18
2019-03-16T17:47:16.104Z,10.14
2019-03-16T17:49:45.522Z,10.14
2019-03-16T17:52:14.778Z,10.19
2019-03-16T17:54:44.078Z,10.23
2019-03-16T17:57:13.404Z,10.23
2019-03-16T17:59:42.726Z,10.22
2019-03-16T18:02:11.974Z,10.20
2019-03-16T18:04:41.313Z,10.21
2019-03-16T18:07:10.525Z,10.23
2019-03-16T18:09:39.826Z,10.29
2019-03-16T18:12:09.137Z,10.36
2019-03-16T18:14:38.441Z,10.35
2019-03-16T18:17:07.675Z,10.38
2019-03-16T18:19:37.083Z,10.42
2019-03-16T18:22:06.312Z,10.40
2019-03-16T18:24:35.682Z,10.36
2019-03-16T18:27:04.930Z,10.30
2019-03-16T18:29:34.244Z,10.30
2019-03-16T18:32:08.184Z,10.31
2019-03-16T18:34:32.776Z,10.27
2019-03-16T18:37:02.047Z,10.29
2019-03-16T18:39:31.393Z,10.26
2019-03-16T18:42:00.667Z,10.23
2019-03-16T18:44:30.038Z,10.13
2019-03-16T18:46:59.323Z,10.17
2019-03-16T18:49:28.688Z,10.23
2019-03-16T18:51:58.144Z,10.25
2019-03-16T18:54:27.397Z,10.26
2019-03-16T18:56:56.660Z,10.30
2019-03-16T18:59:25.876Z,10.33
2019-03-16T19:01:55.150Z,10.35
2019-03-16T19:04:24.378Z,10.33
2019-03-16T19:06:53.744Z,10.31
2019-03-16T19:09:22.998Z,10.26
2019-03-16T19:11:52.228Z,10.30
2019-03-16T19:14:21.535Z,10.22
2019-03-16T19:16:50.904Z,10.27
2019-03-16T19:19:20.255Z,10.29
2019-03-16T19:21:49.489Z,10.26
2019-03-16T19:24:18.840Z,10.19
2019-03-16T19:26:48.090Z,10.17
2019-03-16T19:29:17.340Z,10.23
2019-03-16T19:31:46.570Z,10.20
2019-03-16T19:34:16.149Z,10.21
2019-03-16T19:36:45.472Z,10.24
2019-03-16T19:39:14.704Z,10.19
2019-03-16T19:41:44.064Z,10.21
2019-03-16T19:44:13.181Z,10.19
2019-03-16T19:46:42.477Z,10.20
2019-03-16T19:49:11.954Z,10.24
2019-03-16T19:51:41.230Z,10.28
2019-03-16T19:54:10.453Z,10.29
2019-03-16T19:56:39.707Z,10.27
2019-03-16T19:59:09.118Z,10.30
2019-03-16T20:01:38.372Z,10.35
2019-03-16T20:04:07.626Z,10.31
2019-03-16T20:06:36.853Z,10.28
2019-03-16T20:09:07.610Z,10.26
2019-03-16T20:11:36.914Z,10.34
2019-03-16T20:14:06.161Z,10.38
2019-03-16T20:16:35.387Z,10.35
2019-03-16T20:19:04.689Z,10.36
2019-03-16T20:21:34.008Z,10.37
2019-03-16T20:24:03.314Z,10.41
2019-03-16T20:26:32.766Z,10.39
2019-03-16T20:29:02.094Z,10.44
2019-03-16T20:31:31.549Z,10.50
2019-03-16T20:34:00.792Z,10.47
2019-03-16T20:36:30.160Z,10.43
2019-03-16T20:38:59.387Z,10.43
2019-03-16T20:41:36.125Z,10.43
2019-03-16T20:43:58.034Z,10.35
2019-03-16T20:46:27.293Z,10.42
2019-03-16T20:48:56.528Z,10.42
2019-03-16T20:51:25.876Z,10.42
2019-03-16T20:53:55.106Z,10.40
2019-03-16T20:56:24.328Z,10.35
2019-03-16T20:58:53.658Z,10.41
2019-03-16T21:01:23.119Z,10.41
2019-03-16T21:03:52.324Z,10.41
2019-03-16T21:06:21.580Z,10.35
2019-03-16T21:09:02.665Z,10.42
2019-03-16T21:11:20.104Z,10.42
2019-03-16T21:13:49.299Z,10.32
2019-03-16T21:16:18.537Z,10.31
2019-03-16T21:18:48.080Z,10.26
2019-03-16T21:21:17.004Z,10.26
2019-03-16T21:23:46.235Z,10.33
2019-03-16T21:26:15.486Z,10.35
2019-03-16T21:28:44.719Z,10.28
2019-03-16T21:31:13.974Z,10.25
2019-03-16T21:33:45.748Z,10.23
2019-03-16T21:36:12.725Z,10.14
2019-03-16T21:38:43.851Z,10.14
2019-03-16T21:41:11.216Z,10.20
2019-03-16T21:43:40.470Z,10.18
2019-03-16T21:46:09.684Z,10.18
2019-03-16T21:48:39.082Z,10.16
2019-03-16T21:51:08.254Z,10.22
2019-03-16T21:53:37.542Z,10.20
2019-03-16T21:56:06.792Z,10.20
2019-03-16T21:58:38.497Z,10.18
2019-03-16T22:01:07.777Z,10.15
2019-03-16T22:03:41.868Z,10.13
2019-03-16T22:06:06.307Z,10.12
2019-03-16T22:08:35.559Z,10.05
2019-03-16T22:11:05.533Z,10.08
2019-03-16T22:13:34.091Z,10.08
2019-03-16T22:16:03.359Z,10.16
2019-03-16T22:18:32.609Z,10.15
2019-03-16T22:21:01.936Z,10.12
2019-03-16T22:23:31.152Z,10.11
2019-03-16T22:26:00.452Z,10.12
2019-03-16T22:28:29.691Z,10.12
2019-03-16T22:30:58.913Z,10.10
2019-03-16T22:33:28.160Z,10.11
2019-03-16T22:35:57.420Z,10.14
2019-03-16T22:38:26.769Z,10.14
2019-03-16T22:40:56.086Z,10.12
2019-03-16T22:43:25.424Z,10.09
2019-03-16T22:45:54.636Z,10.09
2019-03-16T22:48:23.844Z,10.02
2019-03-16T22:50:53.140Z,10.07
2019-03-16T22:53:22.497Z,10.08
2019-03-16T22:55:51.687Z,10.08
2019-03-16T22:58:20.927Z,10.09
2019-03-16T23:00:50.432Z,10.10
2019-03-16T23:03:19.716Z,10.07
2019-03-16T23:05:49.019Z,10.09
2019-03-16T23:08:18.363Z,10.09
2019-03-16T23:10:47.707Z,10.04
2019-03-16T23:13:17.008Z,10.04
2019-03-16T23:15:46.237Z,10.07
2019-03-16T23:18:16.624Z,10.07
2019-03-16T23:20:45.837Z,10.11
2019-03-16T23:23:15.198Z,10.16
2019-03-16T23:25:44.485Z,10.14
2019-03-16T23:28:13.809Z,10.15
2019-03-16T23:30:43.107Z,10.18
2019-03-16T23:33:12.373Z,10.18
2019-03-16T23:35:41.663Z,10.19
2019-03-16T23:38:10.927Z,10.12
2019-03-16T23:40:40.241Z,10.14
2019-03-16T23:43:09.465Z,10.13
2019-03-16T23:45:38.723Z,10.11
2019-03-16T23:48:07.996Z,10.09
2019-03-16T23:50:37.327Z,10.14
2019-03-16T23:53:06.569Z,10.14
2019-03-16T23:55:35.795Z,10.16
2019-03-16T23:58:05.011Z,10.21
